sensor_id;sensor_type;location;lat;lon;timestamp;pressure;altitude;pressure_sealevel;temperature;humidity
69766;BME280;57039;48.014;21.384;2024-02-28T00:00:59;100653.59;;;10.38;100.00
69766;BME280;57039;48.014;21.384;2024-02-28T00:02:03;100651.34;;;10.31;100.00
69766;BME280;57039;48.014;21.384;2024-02-28T00:03:05;100639.63;;;10.20;100.00
69766;BME280;57039;48.014;21.384;2024-02-28T00:04:08;100646.44;;;10.23;100.00
69766;BME280;57039;48.014;21.384;2024-02-28T00:05:11;100626.03;;;10.12;100.00
69766;BME280;57039;48.014;21.384;2024-02-28T00:06:16;100648.06;;;10.25;100.00
69766;BME280;57039;48.014;21.384;2024-02-28T00:07:19;100653.41;;;10.24;100.00
69766;BME280;57039;48.014;21.384;2024-02-28T00:08:22;100653.47;;;10.22;100.00
69766;BME280;57039;48.014;21.384;2024-02-28T00:09:25;100657.34;;;10.15;100.00
69766;BME280;57039;48.014;21.384;2024-02-28T00:10:28;100659.12;;;10.15;100.00
69766;BME280;57039;48.014;21.384;2024-02-28T00:11:31;100659.50;;;10.07;100.00
69766;BME280;57039;48.014;21.384;2024-02-28T00:12:35;100654.56;;;10.01;100.00
69766;BME280;57039;48.014;21.384;2024-02-28T00:13:39;100663.91;;;10.06;100.00
69766;BME280;57039;48.014;21.384;2024-02-28T00:14:41;100656.09;;;10.05;100.00
69766;BME280;57039;48.014;21.384;2024-02-28T00:15:44;100655.25;;;10.04;100.00
69766;BME280;57039;48.014;21.384;2024-02-28T00:16:47;100658.81;;;10.03;100.00
69766;BME280;57039;48.014;21.384;2024-02-28T00:17:54;100660.66;;;10.01;100.00
69766;BME280;57039;48.014;21.384;2024-02-28T00:18:57;100652.88;;;10.00;100.00
69766;BME280;57039;48.014;21.384;2024-02-28T00:20:00;100662.44;;;10.01;100.00
69766;BME280;57039;48.014;21.384;2024-02-28T00:21:03;100665.00;;;10.02;100.00
69766;BME280;57039;48.014;21.384;2024-02-28T00:22:06;100641.16;;;9.90;100.00
69766;BME280;57039;48.014;21.384;2024-02-28T00:23:09;100646.06;;;9.96;100.00
69766;BME280;57039;48.014;21.384;2024-02-28T00:24:11;100665.00;;;10.02;100.00
69766;BME280;57039;48.014;21.384;2024-02-28T00:25:14;100663.28;;;10.01;100.00
69766;BME280;57039;48.014;21.384;2024-02-28T00:26:18;100670.44;;;9.98;100.00
69766;BME280;57039;48.014;21.384;2024-02-28T00:27:21;100667.97;;;9.95;100.00
69766;BME280;57039;48.014;21.384;2024-02-28T00:28:24;100660.06;;;9.96;100.00
69766;BME280;57039;48.014;21.384;2024-02-28T00:29:27;100660.97;;;9.95;100.00
69766;BME280;57039;48.014;21.384;2024-02-28T00:30:30;100661.06;;;9.94;100.00
69766;BME280;57039;48.014;21.384;2024-02-28T00:31:34;100672.44;;;9.93;100.00
69766;BME280;57039;48.014;21.384;2024-02-28T00:32:37;100663.97;;;9.88;100.00
69766;BME280;57039;48.014;21.384;2024-02-28T00:33:40;100656.56;;;9.78;100.00
69766;BME280;57039;48.014;21.384;2024-02-28T00:34:43;100664.03;;;9.86;100.00
69766;BME280;57039;48.014;21.384;2024-02-28T00:35:46;100661.50;;;9.85;100.00
69766;BME280;57039;48.014;21.384;2024-02-28T00:36:49;100664.19;;;9.83;100.00
69766;BME280;57039;48.014;21.384;2024-02-28T00:37:57;100668.66;;;9.81;100.00
69766;BME280;57039;48.014;21.384;2024-02-28T00:39:00;100668.66;;;9.81;100.00
69766;BME280;57039;48.014;21.384;2024-02-28T00:40:04;100672.34;;;9.77;100.00
69766;BME280;57039;48.014;21.384;2024-02-28T00:41:07;100667.22;;;9.75;100.00
69766;BME280;57039;48.014;21.384;2024-02-28T00:42:09;100669.09;;;9.72;100.00
69766;BME280;57039;48.014;21.384;2024-02-28T00:43:12;100665.66;;;9.71;100.00
69766;BME280;57039;48.014;21.384;2024-02-28T00:44:16;100662.19;;;9.71;100.00
69766;BME280;57039;48.014;21.384;2024-02-28T00:45:18;100667.50;;;9.69;100.00
69766;BME280;57039;48.014;21.384;2024-02-28T00:46:23;100666.56;;;9.70;100.00
69766;BME280;57039;48.014;21.384;2024-02-28T00:47:25;100670.97;;;9.70;100.00
69766;BME280;57039;48.014;21.384;2024-02-28T00:48:29;100665.66;;;9.71;100.00
69766;BME280;57039;48.014;21.384;2024-02-28T00:49:32;100664.81;;;9.71;100.00
69766;BME280;57039;48.014;21.384;2024-02-28T00:50:34;100666.56;;;9.70;100.00
69766;BME280;57039;48.014;21.384;2024-02-28T00:51:37;100637.03;;;9.49;100.00
69766;BME280;57039;48.014;21.384;2024-02-28T00:52:40;100669.41;;;9.66;100.00
69766;BME280;57039;48.014;21.384;2024-02-28T00:53:44;100668.41;;;9.68;100.00
69766;BME280;57039;48.014;21.384;2024-02-28T00:54:47;100670.19;;;9.68;100.00
69766;BME280;57039;48.014;21.384;2024-02-28T00:55:50;100668.56;;;9.65;100.00
69766;BME280;57039;48.014;21.384;2024-02-28T00:56:54;100656.41;;;9.64;100.00
69766;BME280;57039;48.014;21.384;2024-02-28T00:57:57;100666.94;;;9.63;100.00
69766;BME280;57039;48.014;21.384;2024-02-28T00:58:59;100671.34;;;9.62;100.00
69766;BME280;57039;48.014;21.384;2024-02-28T01:00:03;100669.00;;;9.56;100.00
69766;BME280;57039;48.014;21.384;2024-02-28T01:01:09;100672.62;;;9.53;100.00
69766;BME280;57039;48.014;21.384;2024-02-28T01:02:12;100674.41;;;9.53;100.00
69766;BME280;57039;48.014;21.384;2024-02-28T01:03:15;100664.00;;;9.51;100.00
69766;BME280;57039;48.014;21.384;2024-02-28T01:04:18;100673.63;;;9.51;100.00
69766;BME280;57039;48.014;21.384;2024-02-28T01:05:22;100675.34;;;9.52;100.00
69766;BME280;57039;48.014;21.384;2024-02-28T01:06:25;100669.31;;;9.50;100.00
69766;BME280;57039;48.014;21.384;2024-02-28T01:07:28;100667.53;;;9.50;100.00
69766;BME280;57039;48.014;21.384;2024-02-28T01:08:30;100669.25;;;9.51;100.00
69766;BME280;57039;48.014;21.384;2024-02-28T01:09:33;100619.94;;;9.23;100.00
69766;BME280;57039;48.014;21.384;2024-02-28T01:10:36;100619.25;;;9.20;100.00
69766;BME280;57039;48.014;21.384;2024-02-28T01:11:40;100669.59;;;9.44;100.00
69766;BME280;57039;48.014;21.384;2024-02-28T01:12:43;100674.91;;;9.42;100.00
69766;BME280;57039;48.014;21.384;2024-02-28T01:13:46;100667.19;;;9.39;100.00
69766;BME280;57039;48.014;21.384;2024-02-28T01:14:49;100667.19;;;9.39;100.00
69766;BME280;57039;48.014;21.384;2024-02-28T01:15:52;100666.16;;;9.43;100.00
69766;BME280;57039;48.014;21.384;2024-02-28T01:16:55;100660.91;;;9.43;100.00
69766;BME280;57039;48.014;21.384;2024-02-28T01:17:57;100666.97;;;9.44;100.00
69766;BME280;57039;48.014;21.384;2024-02-28T01:19:00;100662.81;;;9.40;100.00
69766;BME280;57039;48.014;21.384;2024-02-28T01:20:03;100667.03;;;9.42;100.00
69766;BME280;57039;48.014;21.384;2024-02-28T01:21:06;100665.34;;;9.41;100.00
69766;BME280;57039;48.014;21.384;2024-02-28T01:22:09;100665.50;;;9.38;100.00
69766;BME280;57039;48.014;21.384;2024-02-28T01:23:13;100662.97;;;9.36;100.00
69766;BME280;57039;48.014;21.384;2024-02-28T01:24:16;100667.28;;;9.37;100.00
69766;BME280;57039;48.014;21.384;2024-02-28T01:25:18;100660.22;;;9.40;100.00
69766;BME280;57039;48.014;21.384;2024-02-28T01:26:22;100660.34;;;9.36;100.00
69766;BME280;57039;48.014;21.384;2024-02-28T01:27:25;100664.94;;;9.31;100.00
69766;BME280;57039;48.014;21.384;2024-02-28T01:28:27;100659.72;;;9.31;100.00
69766;BME280;57039;48.014;21.384;2024-02-28T01:29:30;100666.63;;;9.32;100.00
69766;BME280;57039;48.014;21.384;2024-02-28T01:30:33;100663.72;;;9.38;100.00
69766;BME280;57039;48.014;21.384;2024-02-28T01:31:37;100662.09;;;9.36;100.00
69766;BME280;57039;48.014;21.384;2024-02-28T01:32:39;100666.50;;;9.35;100.00
69766;BME280;57039;48.014;21.384;2024-02-28T01:33:42;100667.44;;;9.34;100.00
69766;BME280;57039;48.014;21.384;2024-02-28T01:34:46;100663.13;;;9.33;100.00
69766;BME280;57039;48.014;21.384;2024-02-28T01:35:49;100661.41;;;9.32;100.00
69766;BME280;57039;48.014;21.384;2024-02-28T01:36:52;100662.38;;;9.30;100.00
69766;BME280;57039;48.014;21.384;2024-02-28T01:37:55;100660.66;;;9.30;100.00
69766;BME280;57039;48.014;21.384;2024-02-28T01:38:57;100665.75;;;9.33;100.00
69766;BME280;57039;48.014;21.384;2024-02-28T01:40:00;100661.69;;;9.26;100.00
69766;BME280;57039;48.014;21.384;2024-02-28T01:41:03;100666.09;;;9.26;100.00
69766;BME280;57039;48.014;21.384;2024-02-28T01:42:08;100660.78;;;9.27;100.00
69766;BME280;57039;48.014;21.384;2024-02-28T01:43:12;100659.22;;;9.23;100.00
69766;BME280;57039;48.014;21.384;2024-02-28T01:44:15;100649.97;;;9.16;100.00
69766;BME280;57039;48.014;21.384;2024-02-28T01:45:18;100617.72;;;8.97;100.00
69766;BME280;57039;48.014;21.384;2024-02-28T01:46:24;100667.50;;;9.14;100.00
69766;BME280;57039;48.014;21.384;2024-02-28T01:47:28;100669.34;;;9.12;100.00
69766;BME280;57039;48.014;21.384;2024-02-28T01:48:31;100671.81;;;9.15;100.00
69766;BME280;57039;48.014;21.384;2024-02-28T01:49:35;100668.16;;;9.19;100.00
69766;BME280;57039;48.014;21.384;2024-02-28T01:50:38;100661.97;;;9.20;100.00
69766;BME280;57039;48.014;21.384;2024-02-28T01:51:41;100671.81;;;9.15;100.00
69766;BME280;57039;48.014;21.384;2024-02-28T01:52:45;100661.34;;;9.15;100.00
69766;BME280;57039;48.014;21.384;2024-02-28T01:53:48;100664.53;;;9.22;100.00
69766;BME280;57039;48.014;21.384;2024-02-28T01:54:53;100660.22;;;9.21;100.00
69766;BME280;57039;48.014;21.384;2024-02-28T01:55:56;100666.53;;;9.17;100.00
69766;BME280;57039;48.014;21.384;2024-02-28T01:57:00;100669.06;;;9.18;100.00
69766;BME280;57039;48.014;21.384;2024-02-28T01:58:03;100668.16;;;9.19;100.00
69766;BME280;57039;48.014;21.384;2024-02-28T01:59:10;100666.38;;;9.20;100.00
69766;BME280;57039;48.014;21.384;2024-02-28T02:00:13;100670.75;;;9.19;100.00
69766;BME280;57039;48.014;21.384;2024-02-28T02:01:18;100669.12;;;9.17;100.00
69766;BME280;57039;48.014;21.384;2024-02-28T02:02:22;100670.91;;;9.16;100.00
69766;BME280;57039;48.014;21.384;2024-02-28T02:03:25;100677.91;;;9.16;100.00
69766;BME280;57039;48.014;21.384;2024-02-28T02:04:28;100682.56;;;9.09;100.00
69766;BME280;57039;48.014;21.384;2024-02-28T02:05:31;100673.97;;;9.07;100.00
69766;BME280;57039;48.014;21.384;2024-02-28T02:06:37;100681.66;;;9.10;100.00
69766;BME280;57039;48.014;21.384;2024-02-28T02:07:42;100673.88;;;9.08;100.00
69766;BME280;57039;48.014;21.384;2024-02-28T02:08:46;100673.88;;;9.08;100.00
69766;BME280;57039;48.014;21.384;2024-02-28T02:09:48;100665.19;;;9.08;100.00
69766;BME280;57039;48.014;21.384;2024-02-28T02:10:53;100647.56;;;8.93;100.00
69766;BME280;57039;48.014;21.384;2024-02-28T02:11:56;100673.69;;;9.13;100.00
69766;BME280;57039;48.014;21.384;2024-02-28T02:13:06;100654.56;;;8.92;100.00
69766;BME280;57039;48.014;21.384;2024-02-28T02:14:10;100682.28;;;9.15;100.00
69766;BME280;57039;48.014;21.384;2024-02-28T02:15:13;100630.09;;;8.93;100.00
69766;BME280;57039;48.014;21.384;2024-02-28T02:16:16;100680.87;;;9.27;100.00
69766;BME280;57039;48.014;21.384;2024-02-28T02:17:19;100679.88;;;9.29;100.00
69766;BME280;57039;48.014;21.384;2024-02-28T02:18:22;100679.22;;;9.24;100.00
69766;BME280;57039;48.014;21.384;2024-02-28T02:19:25;100669.53;;;9.26;100.00
69766;BME280;57039;48.014;21.384;2024-02-28T02:20:32;100675.56;;;9.28;100.00
69766;BME280;57039;48.014;21.384;2024-02-28T02:21:52;100678.34;;;9.25;100.00
69766;BME280;57039;48.014;21.384;2024-02-28T02:22:57;100675.56;;;9.28;100.00
69766;BME280;57039;48.014;21.384;2024-02-28T02:24:00;100668.75;;;9.24;100.00
69766;BME280;57039;48.014;21.384;2024-02-28T02:25:03;100681.16;;;9.21;100.00
69766;BME280;57039;48.014;21.384;2024-02-28T02:26:07;100677.84;;;9.17;100.00
69766;BME280;57039;48.014;21.384;2024-02-28T02:27:10;100675.34;;;9.14;100.00
69766;BME280;57039;48.014;21.384;2024-02-28T02:28:13;100677.03;;;9.15;100.00
69766;BME280;57039;48.014;21.384;2024-02-28T02:29:16;100671.75;;;9.17;100.00
69766;BME280;57039;48.014;21.384;2024-02-28T02:30:19;100672.59;;;9.17;100.00
69766;BME280;57039;48.014;21.384;2024-02-28T02:31:22;100675.06;;;9.20;100.00
69766;BME280;57039;48.014;21.384;2024-02-28T02:32:24;100677.53;;;9.23;100.00
69766;BME280;57039;48.014;21.384;2024-02-28T02:33:28;100671.66;;;9.18;100.00
69766;BME280;57039;48.014;21.384;2024-02-28T02:34:31;100671.09;;;9.11;100.00
69766;BME280;57039;48.014;21.384;2024-02-28T02:35:34;100670.06;;;9.16;100.00
69766;BME280;57039;48.014;21.384;2024-02-28T02:36:37;100665.38;;;9.22;100.00
69766;BME280;57039;48.014;21.384;2024-02-28T02:37:43;100663.53;;;9.24;100.00
69766;BME280;57039;48.014;21.384;2024-02-28T02:38:48;100667.78;;;9.27;100.00
69766;BME280;57039;48.014;21.384;2024-02-28T02:39:51;100662.53;;;9.27;100.00
69766;BME280;57039;48.014;21.384;2024-02-28T02:40:55;100666.03;;;9.27;100.00
69766;BME280;57039;48.014;21.384;2024-02-28T02:41:57;100670.91;;;9.16;100.00
69766;BME280;57039;48.014;21.384;2024-02-28T02:43:00;100677.78;;;9.19;100.00
69766;BME280;57039;48.014;21.384;2024-02-28T02:44:04;100679.47;;;9.20;100.00
69766;BME280;57039;48.014;21.384;2024-02-28T02:45:07;100680.53;;;9.16;100.00
69766;BME280;57039;48.014;21.384;2024-02-28T02:46:10;100681.28;;;9.18;100.00
69766;BME280;57039;48.014;21.384;2024-02-28T02:47:13;100684.19;;;9.11;100.00
69766;BME280;57039;48.014;21.384;2024-02-28T02:48:16;100686.12;;;9.08;100.00
69766;BME280;57039;48.014;21.384;2024-02-28T02:49:19;100689.44;;;9.11;100.00
69766;BME280;57039;48.014;21.384;2024-02-28T02:50:22;100686.91;;;9.10;100.00
69766;BME280;57039;48.014;21.384;2024-02-28T02:51:25;100687.03;;;9.07;100.00
69766;BME280;57039;48.014;21.384;2024-02-28T02:52:28;100683.50;;;9.08;100.00
69766;BME280;57039;48.014;21.384;2024-02-28T02:53:31;100684.44;;;9.07;100.00
69766;BME280;57039;48.014;21.384;2024-02-28T02:54:34;100693.25;;;9.04;100.00
69766;BME280;57039;48.014;21.384;2024-02-28T02:55:37;100686.53;;;8.99;100.00
69766;BME280;57039;48.014;21.384;2024-02-28T02:56:43;100691.81;;;8.97;100.00
69766;BME280;57039;48.014;21.384;2024-02-28T02:57:46;100693.53;;;8.98;100.00
69766;BME280;57039;48.014;21.384;2024-02-28T02:58:49;100689.06;;;9.00;100.00
69766;BME280;57039;48.014;21.384;2024-02-28T02:59:52;100699.06;;;8.92;100.00
69766;BME280;57039;48.014;21.384;2024-02-28T03:00:55;100696.50;;;8.90;100.00
69766;BME280;57039;48.014;21.384;2024-02-28T03:01:58;100701.87;;;8.87;100.00
69766;BME280;57039;48.014;21.384;2024-02-28T03:03:01;100707.25;;;8.84;100.00
69766;BME280;57039;48.014;21.384;2024-02-28T03:04:04;100695.97;;;8.82;100.00
69766;BME280;57039;48.014;21.384;2024-02-28T03:05:08;100705.53;;;8.83;100.00
69766;BME280;57039;48.014;21.384;2024-02-28T03:06:11;100699.19;;;8.89;100.00
69766;BME280;57039;48.014;21.384;2024-02-28T03:07:14;100701.28;;;8.81;100.00
69766;BME280;57039;48.014;21.384;2024-02-28T03:08:17;100693.78;;;8.73;100.00
69766;BME280;57039;48.014;21.384;2024-02-28T03:09:19;100707.31;;;8.83;100.00
69766;BME280;57039;48.014;21.384;2024-02-28T03:10:22;100703.59;;;8.88;100.00
69766;BME280;57039;48.014;21.384;2024-02-28T03:11:25;100705.41;;;8.86;100.00
69766;BME280;57039;48.014;21.384;2024-02-28T03:12:28;100712.41;;;8.86;100.00
69766;BME280;57039;48.014;21.384;2024-02-28T03:13:31;100715.88;;;8.86;100.00
69766;BME280;57039;48.014;21.384;2024-02-28T03:14:35;100714.06;;;8.88;100.00
69766;BME280;57039;48.014;21.384;2024-02-28T03:15:38;100702.66;;;8.89;100.00
69766;BME280;57039;48.014;21.384;2024-02-28T03:16:44;100714.91;;;8.89;100.00
69766;BME280;57039;48.014;21.384;2024-02-28T03:17:47;100711.22;;;8.93;100.00
69766;BME280;57039;48.014;21.384;2024-02-28T03:18:50;100712.75;;;8.97;100.00
69766;BME280;57039;48.014;21.384;2024-02-28T03:19:53;100708.41;;;8.98;100.00
69766;BME280;57039;48.014;21.384;2024-02-28T03:20:56;100711.72;;;9.01;100.00
69766;BME280;57039;48.014;21.384;2024-02-28T03:21:59;100708.03;;;9.05;100.00
69766;BME280;57039;48.014;21.384;2024-02-28T03:23:01;100705.56;;;9.02;100.00
69766;BME280;57039;48.014;21.384;2024-02-28T03:24:05;100719.56;;;9.01;100.00
69766;BME280;57039;48.014;21.384;2024-02-28T03:25:08;100709.84;;;9.03;100.00
69766;BME280;57039;48.014;21.384;2024-02-28T03:26:11;100705.00;;;8.96;100.00
69766;BME280;57039;48.014;21.384;2024-02-28T03:27:14;100718.59;;;9.04;100.00
69766;BME280;57039;48.014;21.384;2024-02-28T03:28:17;100665.94;;;8.72;100.00
69766;BME280;57039;48.014;21.384;2024-02-28T03:29:20;100711.50;;;9.06;100.00
69766;BME280;57039;48.014;21.384;2024-02-28T03:30:23;100715.19;;;9.02;100.00
69766;BME280;57039;48.014;21.384;2024-02-28T03:31:27;100711.63;;;9.03;100.00
69766;BME280;57039;48.014;21.384;2024-02-28T03:32:31;100721.41;;;8.99;100.00
69766;BME280;57039;48.014;21.384;2024-02-28T03:33:34;100718.72;;;9.01;100.00
69766;BME280;57039;48.014;21.384;2024-02-28T03:34:38;100720.34;;;9.03;100.00
69766;BME280;57039;48.014;21.384;2024-02-28T03:35:40;100718.50;;;9.05;100.00
69766;BME280;57039;48.014;21.384;2024-02-28T03:36:44;100723.69;;;9.07;100.00
69766;BME280;57039;48.014;21.384;2024-02-28T03:37:47;100718.72;;;9.01;100.00
69766;BME280;57039;48.014;21.384;2024-02-28T03:38:50;100725.66;;;9.02;100.00
69766;BME280;57039;48.014;21.384;2024-02-28T03:39:53;100735.75;;;8.90;100.00
69766;BME280;57039;48.014;21.384;2024-02-28T03:40:55;100729.16;;;8.82;100.00
69766;BME280;57039;48.014;21.384;2024-02-28T03:41:59;100735.09;;;8.85;100.00
69766;BME280;57039;48.014;21.384;2024-02-28T03:43:01;100735.97;;;8.86;100.00
69766;BME280;57039;48.014;21.384;2024-02-28T03:44:05;100738.56;;;8.86;100.00
69766;BME280;57039;48.014;21.384;2024-02-28T03:45:08;100735.03;;;8.87;100.00
69766;BME280;57039;48.014;21.384;2024-02-28T03:46:10;100734.72;;;8.95;100.00
69766;BME280;57039;48.014;21.384;2024-02-28T03:47:13;100732.09;;;8.95;100.00
69766;BME280;57039;48.014;21.384;2024-02-28T03:48:16;100740.12;;;8.90;100.00
69766;BME280;57039;48.014;21.384;2024-02-28T03:49:19;100728.72;;;8.91;100.00
69766;BME280;57039;48.014;21.384;2024-02-28T03:50:22;100737.25;;;8.96;100.00
69766;BME280;57039;48.014;21.384;2024-02-28T03:51:25;100739.81;;;8.98;100.00
69766;BME280;57039;48.014;21.384;2024-02-28T03:52:29;100740.91;;;8.92;100.00
69766;BME280;57039;48.014;21.384;2024-02-28T03:53:32;100735.69;;;8.92;100.00
69766;BME280;57039;48.014;21.384;2024-02-28T03:54:35;100743.66;;;8.89;100.00
69766;BME280;57039;48.014;21.384;2024-02-28T03:55:38;100747.19;;;8.88;100.00
69766;BME280;57039;48.014;21.384;2024-02-28T03:56:41;100749.75;;;8.89;100.00
69766;BME280;57039;48.014;21.384;2024-02-28T03:57:47;100745.56;;;8.85;100.00
69766;BME280;57039;48.014;21.384;2024-02-28T03:58:51;100748.53;;;8.78;100.00
69766;BME280;57039;48.014;21.384;2024-02-28T03:59:53;100752.91;;;8.77;100.00
69766;BME280;57039;48.014;21.384;2024-02-28T04:00:56;100753.03;;;8.74;100.00
69766;BME280;57039;48.014;21.384;2024-02-28T04:01:59;100756.50;;;8.75;100.00
69766;BME280;57039;48.014;21.384;2024-02-28T04:03:04;100752.97;;;8.76;100.00
69766;BME280;57039;48.014;21.384;2024-02-28T04:04:06;100752.91;;;8.77;100.00
69766;BME280;57039;48.014;21.384;2024-02-28T04:05:10;100725.56;;;8.43;100.00
69766;BME280;57039;48.014;21.384;2024-02-28T04:06:13;100763.16;;;8.61;100.00
69766;BME280;57039;48.014;21.384;2024-02-28T04:07:16;100757.31;;;8.56;100.00
69766;BME280;57039;48.014;21.384;2024-02-28T04:08:18;100756.06;;;8.44;100.00
69766;BME280;57039;48.014;21.384;2024-02-28T04:09:21;100760.62;;;8.39;100.00
69766;BME280;57039;48.014;21.384;2024-02-28T04:10:24;100760.66;;;8.38;100.00
69766;BME280;57039;48.014;21.384;2024-02-28T04:11:27;100758.53;;;8.48;100.00
69766;BME280;57039;48.014;21.384;2024-02-28T04:12:31;100766.78;;;8.59;100.00
69766;BME280;57039;48.014;21.384;2024-02-28T04:13:33;100764.03;;;8.62;100.00
69766;BME280;57039;48.014;21.384;2024-02-28T04:14:39;100760.22;;;8.69;100.00
69766;BME280;57039;48.014;21.384;2024-02-28T04:15:43;100763.69;;;8.69;100.00
69766;BME280;57039;48.014;21.384;2024-02-28T04:16:48;100766.66;;;8.62;100.00
69766;BME280;57039;48.014;21.384;2024-02-28T04:17:52;100761.91;;;8.70;100.00
69766;BME280;57039;48.014;21.384;2024-02-28T04:18:55;100759.03;;;8.76;100.00
69766;BME280;57039;48.014;21.384;2024-02-28T04:19:58;100764.22;;;8.78;100.00
69766;BME280;57039;48.014;21.384;2024-02-28T04:21:01;100706.28;;;8.46;100.00
69766;BME280;57039;48.014;21.384;2024-02-28T04:22:04;100769.37;;;8.79;100.00
69766;BME280;57039;48.014;21.384;2024-02-28T04:23:08;100770.28;;;8.78;100.00
69766;BME280;57039;48.014;21.384;2024-02-28T04:24:11;100771.94;;;8.81;100.00
69766;BME280;57039;48.014;21.384;2024-02-28T04:25:17;100768.47;;;8.80;100.00
69766;BME280;57039;48.014;21.384;2024-02-28T04:26:20;100766.69;;;8.81;100.00
69766;BME280;57039;48.014;21.384;2024-02-28T04:27:23;100751.31;;;8.73;100.00
69766;BME280;57039;48.014;21.384;2024-02-28T04:28:26;100761.50;;;8.79;100.00
69766;BME280;57039;48.014;21.384;2024-02-28T04:29:29;100768.19;;;8.86;100.00
69766;BME280;57039;48.014;21.384;2024-02-28T04:30:31;100766.47;;;8.85;100.00
69766;BME280;57039;48.014;21.384;2024-02-28T04:31:37;100762.19;;;8.84;100.00
69766;BME280;57039;48.014;21.384;2024-02-28T04:32:41;100736.03;;;8.64;100.00
69766;BME280;57039;48.014;21.384;2024-02-28T04:33:44;100756.16;;;8.82;100.00
69766;BME280;57039;48.014;21.384;2024-02-28T04:34:47;100761.91;;;8.90;100.00
69766;BME280;57039;48.014;21.384;2024-02-28T04:35:49;100734.91;;;8.69;100.00
69766;BME280;57039;48.014;21.384;2024-02-28T04:36:52;100765.44;;;8.89;100.00
69766;BME280;57039;48.014;21.384;2024-02-28T04:37:55;100758.56;;;8.87;100.00
69766;BME280;57039;48.014;21.384;2024-02-28T04:38:59;100762.97;;;8.86;100.00
69766;BME280;57039;48.014;21.384;2024-02-28T04:40:03;100765.63;;;8.85;100.00
69766;BME280;57039;48.014;21.384;2024-02-28T04:41:07;100703.62;;;8.48;100.00
69766;BME280;57039;48.014;21.384;2024-02-28T04:42:09;100771.66;;;8.87;100.00
69766;BME280;57039;48.014;21.384;2024-02-28T04:43:12;100765.50;;;8.88;100.00
69766;BME280;57039;48.014;21.384;2024-02-28T04:44:15;100768.91;;;8.90;100.00
69766;BME280;57039;48.014;21.384;2024-02-28T04:45:18;100768.78;;;8.93;100.00
69766;BME280;57039;48.014;21.384;2024-02-28T04:46:20;100777.34;;;8.97;100.00
69766;BME280;57039;48.014;21.384;2024-02-28T04:47:23;100772.22;;;8.94;100.00
69766;BME280;57039;48.014;21.384;2024-02-28T04:48:37;100775.78;;;8.93;100.00
69766;BME280;57039;48.014;21.384;2024-02-28T04:49:40;100775.69;;;8.94;100.00
69766;BME280;57039;48.014;21.384;2024-02-28T04:50:43;100772.09;;;8.97;100.00
69766;BME280;57039;48.014;21.384;2024-02-28T04:51:46;100774.56;;;9.00;100.00
69766;BME280;57039;48.014;21.384;2024-02-28T04:52:49;100773.69;;;9.01;100.00
69766;BME280;57039;48.014;21.384;2024-02-28T04:53:51;100732.88;;;8.76;100.00
69766;BME280;57039;48.014;21.384;2024-02-28T04:54:54;100782.16;;;9.06;100.00
69766;BME280;57039;48.014;21.384;2024-02-28T04:55:57;100782.94;;;9.08;100.00
69766;BME280;57039;48.014;21.384;2024-02-28T04:57:00;100779.41;;;9.09;100.00
69766;BME280;57039;48.014;21.384;2024-02-28T04:58:03;100780.88;;;8.96;100.00
69766;BME280;57039;48.014;21.384;2024-02-28T04:59:06;100793.31;;;8.70;100.00
69766;BME280;57039;48.014;21.384;2024-02-28T05:00:10;100791.78;;;8.64;100.00
69766;BME280;57039;48.014;21.384;2024-02-28T05:01:13;100786.66;;;8.83;100.00
69766;BME280;57039;48.014;21.384;2024-02-28T05:02:19;100782.66;;;8.95;100.00
69766;BME280;57039;48.014;21.384;2024-02-28T05:03:24;100790.22;;;9.01;100.00
69766;BME280;57039;48.014;21.384;2024-02-28T05:04:27;100783.94;;;9.05;100.00
69766;BME280;57039;48.014;21.384;2024-02-28T05:05:30;100786.50;;;9.07;100.00
69766;BME280;57039;48.014;21.384;2024-02-28T05:06:33;100785.56;;;9.08;100.00
69766;BME280;57039;48.014;21.384;2024-02-28T05:07:40;100784.62;;;9.09;100.00
69766;BME280;57039;48.014;21.384;2024-02-28T05:08:43;100793.22;;;9.12;100.00
69766;BME280;57039;48.014;21.384;2024-02-28T05:09:46;100786.94;;;9.17;100.00
69766;BME280;57039;48.014;21.384;2024-02-28T05:10:49;100794.56;;;9.21;100.00
69766;BME280;57039;48.014;21.384;2024-02-28T05:11:53;100768.31;;;9.04;100.00
69766;BME280;57039;48.014;21.384;2024-02-28T05:12:56;100792.87;;;9.20;100.00
69766;BME280;57039;48.014;21.384;2024-02-28T05:13:59;100800.84;;;9.17;100.00
69766;BME280;57039;48.014;21.384;2024-02-28T05:15:02;100798.38;;;9.14;100.00
69766;BME280;57039;48.014;21.384;2024-02-28T05:16:14;100799.63;;;9.05;100.00
69766;BME280;57039;48.014;21.384;2024-02-28T05:17:17;100804.44;;;8.96;100.00
69766;BME280;57039;48.014;21.384;2024-02-28T05:18:20;100798.12;;;9.00;100.00
69766;BME280;57039;48.014;21.384;2024-02-28T05:19:23;100803.03;;;9.07;100.00
69766;BME280;57039;48.014;21.384;2024-02-28T05:20:26;100806.44;;;9.09;100.00
69766;BME280;57039;48.014;21.384;2024-02-28T05:21:29;100805.44;;;9.12;100.00
69766;BME280;57039;48.014;21.384;2024-02-28T05:22:31;100802.81;;;9.12;100.00
69766;BME280;57039;48.014;21.384;2024-02-28T05:23:34;100810.53;;;9.15;100.00
69766;BME280;57039;48.014;21.384;2024-02-28T05:24:37;100811.47;;;9.14;100.00
69766;BME280;57039;48.014;21.384;2024-02-28T05:25:40;100762.13;;;8.86;100.00
69766;BME280;57039;48.014;21.384;2024-02-28T05:26:43;100806.31;;;9.12;100.00
69766;BME280;57039;48.014;21.384;2024-02-28T05:27:46;100807.78;;;9.18;100.00